sensor_id;sensor_type;location;lat;lon;timestamp;P1;durP1;ratioP1;P2;durP2;ratioP2
18647;SDS011;9453;50.294;18.644;2023-08-21T04:01:30;15.90;;;12.00;;
18647;SDS011;9453;50.294;18.644;2023-08-21T04:03:57;17.73;;;13.00;;
18647;SDS011;9453;50.294;18.644;2023-08-21T04:06:24;20.65;;;12.70;;
18647;SDS011;9453;50.294;18.644;2023-08-21T04:08:51;17.90;;;12.25;;
18647;SDS011;9453;50.294;18.644;2023-08-21T04:11:17;19.23;;;12.00;;
18647;SDS011;9453;50.294;18.644;2023-08-21T04:13:44;17.13;;;13.77;;
18647;SDS011;9453;50.294;18.644;2023-08-21T04:16:11;20.48;;;13.20;;
18647;SDS011;9453;50.294;18.644;2023-08-21T04:18:39;19.58;;;13.07;;
18647;SDS011;9453;50.294;18.644;2023-08-21T04:21:07;18.77;;;13.55;;
18647;SDS011;9453;50.294;18.644;2023-08-21T04:23:34;19.10;;;14.00;;
18647;SDS011;9453;50.294;18.644;2023-08-21T04:26:01;21.25;;;14.73;;
18647;SDS011;9453;50.294;18.644;2023-08-21T04:28:29;23.70;;;13.68;;
18647;SDS011;9453;50.294;18.644;2023-08-21T04:30:56;18.83;;;13.20;;
18647;SDS011;9453;50.294;18.644;2023-08-21T04:33:24;17.60;;;13.10;;
18647;SDS011;9453;50.294;18.644;2023-08-21T04:35:52;16.73;;;12.80;;
18647;SDS011;9453;50.294;18.644;2023-08-21T04:38:19;18.50;;;12.73;;
18647;SDS011;9453;50.294;18.644;2023-08-21T04:40:46;15.75;;;12.02;;
18647;SDS011;9453;50.294;18.644;2023-08-21T04:43:13;16.92;;;11.50;;
18647;SDS011;9453;50.294;18.644;2023-08-21T04:45:45;16.30;;;11.40;;
18647;SDS011;9453;50.294;18.644;2023-08-21T04:48:13;13.70;;;10.57;;
18647;SDS011;9453;50.294;18.644;2023-08-21T04:50:40;14.68;;;10.75;;
18647;SDS011;9453;50.294;18.644;2023-08-21T04:53:08;14.77;;;11.68;;
18647;SDS011;9453;50.294;18.644;2023-08-21T04:55:36;17.80;;;13.05;;
18647;SDS011;9453;50.294;18.644;2023-08-21T04:58:05;15.38;;;11.60;;
18647;SDS011;9453;50.294;18.644;2023-08-21T05:00:32;20.20;;;12.27;;
18647;SDS011;9453;50.294;18.644;2023-08-21T05:02:59;22.27;;;13.82;;
18647;SDS011;9453;50.294;18.644;2023-08-21T05:05:26;16.42;;;11.65;;
18647;SDS011;9453;50.294;18.644;2023-08-21T05:07:53;17.55;;;11.88;;
18647;SDS011;9453;50.294;18.644;2023-08-21T05:10:21;15.60;;;11.23;;
18647;SDS011;9453;50.294;18.644;2023-08-21T05:12:48;16.73;;;12.05;;
18647;SDS011;9453;50.294;18.644;2023-08-21T05:15:15;15.20;;;11.07;;
18647;SDS011;9453;50.294;18.644;2023-08-21T05:17:42;19.60;;;12.70;;
18647;SDS011;9453;50.294;18.644;2023-08-21T05:20:09;18.00;;;11.82;;
18647;SDS011;9453;50.294;18.644;2023-08-21T05:22:39;15.48;;;10.77;;
18647;SDS011;9453;50.294;18.644;2023-08-21T05:25:07;15.93;;;10.77;;
18647;SDS011;9453;50.294;18.644;2023-08-21T05:27:36;15.85;;;11.48;;
18647;SDS011;9453;50.294;18.644;2023-08-21T05:30:03;14.80;;;10.65;;
18647;SDS011;9453;50.294;18.644;2023-08-21T05:32:30;21.50;;;13.63;;
18647;SDS011;9453;50.294;18.644;2023-08-21T05:34:57;14.57;;;10.82;;
18647;SDS011;9453;50.294;18.644;2023-08-21T05:37:24;15.63;;;10.82;;
18647;SDS011;9453;50.294;18.644;2023-08-21T05:39:52;11.85;;;9.48;;
18647;SDS011;9453;50.294;18.644;2023-08-21T05:42:19;11.45;;;9.13;;
18647;SDS011;9453;50.294;18.644;2023-08-21T05:44:47;20.02;;;10.60;;
18647;SDS011;9453;50.294;18.644;2023-08-21T05:47:14;24.20;;;12.73;;
18647;SDS011;9453;50.294;18.644;2023-08-21T05:49:41;16.13;;;11.00;;
18647;SDS011;9453;50.294;18.644;2023-08-21T05:52:08;18.63;;;10.02;;
18647;SDS011;9453;50.294;18.644;2023-08-21T05:54:35;26.08;;;13.43;;
18647;SDS011;9453;50.294;18.644;2023-08-21T05:57:02;21.48;;;13.18;;
18647;SDS011;9453;50.294;18.644;2023-08-21T05:59:30;18.38;;;12.57;;
18647;SDS011;9453;50.294;18.644;2023-08-21T06:01:59;25.35;;;14.00;;
18647;SDS011;9453;50.294;18.644;2023-08-21T06:04:26;20.30;;;13.38;;
18647;SDS011;9453;50.294;18.644;2023-08-21T06:06:53;18.58;;;12.40;;
18647;SDS011;9453;50.294;18.644;2023-08-21T06:09:20;22.27;;;14.02;;
18647;SDS011;9453;50.294;18.644;2023-08-21T06:11:47;23.08;;;13.70;;
18647;SDS011;9453;50.294;18.644;2023-08-21T06:14:14;21.50;;;13.85;;
18647;SDS011;9453;50.294;18.644;2023-08-21T06:16:41;21.38;;;13.45;;
18647;SDS011;9453;50.294;18.644;2023-08-21T06:19:10;23.45;;;13.55;;
18647;SDS011;9453;50.294;18.644;2023-08-21T06:21:37;28.85;;;12.85;;
18647;SDS011;9453;50.294;18.644;2023-08-21T06:24:04;19.55;;;12.27;;
18647;SDS011;9453;50.294;18.644;2023-08-21T06:26:31;17.33;;;12.40;;
18647;SDS011;9453;50.294;18.644;2023-08-21T06:28:57;18.83;;;11.68;;
18647;SDS011;9453;50.294;18.644;2023-08-21T06:31:24;19.90;;;11.43;;
18647;SDS011;9453;50.294;18.644;2023-08-21T06:33:51;16.05;;;11.38;;
18647;SDS011;9453;50.294;18.644;2023-08-21T06:36:19;14.90;;;10.68;;
18647;SDS011;9453;50.294;18.644;2023-08-21T06:38:46;19.73;;;11.20;;
18647;SDS011;9453;50.294;18.644;2023-08-21T06:41:13;13.90;;;9.90;;
18647;SDS011;9453;50.294;18.644;2023-08-21T06:43:40;13.32;;;10.10;;
18647;SDS011;9453;50.294;18.644;2023-08-21T06:46:07;16.50;;;10.93;;
18647;SDS011;9453;50.294;18.644;2023-08-21T06:48:34;19.80;;;12.48;;
18647;SDS011;9453;50.294;18.644;2023-08-21T06:51:04;15.48;;;10.82;;
18647;SDS011;9453;50.294;18.644;2023-08-21T06:53:32;16.50;;;12.00;;
18647;SDS011;9453;50.294;18.644;2023-08-21T06:55:59;19.13;;;13.60;;
18647;SDS011;9453;50.294;18.644;2023-08-21T06:58:26;23.83;;;14.85;;
18647;SDS011;9453;50.294;18.644;2023-08-21T07:00:54;21.73;;;14.18;;
18647;SDS011;9453;50.294;18.644;2023-08-21T07:03:21;21.67;;;14.90;;
18647;SDS011;9453;50.294;18.644;2023-08-21T07:05:53;19.35;;;12.85;;
18647;SDS011;9453;50.294;18.644;2023-08-21T07:08:21;25.55;;;14.00;;
18647;SDS011;9453;50.294;18.644;2023-08-21T07:10:49;24.40;;;13.95;;
18647;SDS011;9453;50.294;18.644;2023-08-21T07:13:17;21.20;;;11.70;;
18647;SDS011;9453;50.294;18.644;2023-08-21T07:15:45;18.40;;;12.88;;
18647;SDS011;9453;50.294;18.644;2023-08-21T07:18:12;22.95;;;13.25;;
18647;SDS011;9453;50.294;18.644;2023-08-21T07:20:39;15.60;;;10.85;;
18647;SDS011;9453;50.294;18.644;2023-08-21T07:23:06;17.05;;;10.43;;
18647;SDS011;9453;50.294;18.644;2023-08-21T07:25:33;16.10;;;10.27;;
18647;SDS011;9453;50.294;18.644;2023-08-21T07:28:02;12.50;;;9.88;;
18647;SDS011;9453;50.294;18.644;2023-08-21T07:30:29;16.35;;;12.05;;
18647;SDS011;9453;50.294;18.644;2023-08-21T07:32:56;20.73;;;13.30;;
18647;SDS011;9453;50.294;18.644;2023-08-21T07:35:23;21.45;;;13.23;;
18647;SDS011;9453;50.294;18.644;2023-08-21T07:37:50;16.67;;;11.48;;
18647;SDS011;9453;50.294;18.644;2023-08-21T07:40:17;13.90;;;10.30;;
18647;SDS011;9453;50.294;18.644;2023-08-21T07:42:44;19.75;;;10.48;;
18647;SDS011;9453;50.294;18.644;2023-08-21T07:45:12;14.63;;;11.02;;
18647;SDS011;9453;50.294;18.644;2023-08-21T07:47:39;13.48;;;10.18;;
18647;SDS011;9453;50.294;18.644;2023-08-21T07:50:06;16.73;;;10.82;;
18647;SDS011;9453;50.294;18.644;2023-08-21T07:52:34;20.77;;;12.75;;
18647;SDS011;9453;50.294;18.644;2023-08-21T07:55:01;19.77;;;11.70;;
18647;SDS011;9453;50.294;18.644;2023-08-21T07:57:29;15.43;;;10.43;;
18647;SDS011;9453;50.294;18.644;2023-08-21T07:59:56;15.80;;;10.88;;
18647;SDS011;9453;50.294;18.644;2023-08-21T08:02:24;14.00;;;9.88;;
18647;SDS011;9453;50.294;18.644;2023-08-21T08:04:51;15.60;;;10.70;;
18647;SDS011;9453;50.294;18.644;2023-08-21T08:07:18;13.73;;;10.13;;
18647;SDS011;9453;50.294;18.644;2023-08-21T08:09:45;13.55;;;10.75;;
18647;SDS011;9453;50.294;18.644;2023-08-21T08:12:12;15.48;;;9.95;;
18647;SDS011;9453;50.294;18.644;2023-08-21T08:14:40;15.43;;;10.73;;
18647;SDS011;9453;50.294;18.644;2023-08-21T08:17:07;15.68;;;12.07;;
18647;SDS011;9453;50.294;18.644;2023-08-21T08:19:35;15.30;;;10.55;;
18647;SDS011;9453;50.294;18.644;2023-08-21T08:22:02;19.55;;;12.85;;
18647;SDS011;9453;50.294;18.644;2023-08-21T08:24:29;16.40;;;11.15;;
18647;SDS011;9453;50.294;18.644;2023-08-21T08:26:56;17.23;;;11.70;;
18647;SDS011;9453;50.294;18.644;2023-08-21T08:29:23;16.90;;;12.10;;
18647;SDS011;9453;50.294;18.644;2023-08-21T08:31:50;16.17;;;12.48;;
18647;SDS011;9453;50.294;18.644;2023-08-21T08:34:17;18.15;;;12.70;;
18647;SDS011;9453;50.294;18.644;2023-08-21T08:36:46;19.30;;;14.05;;
18647;SDS011;9453;50.294;18.644;2023-08-21T08:39:13;19.20;;;12.20;;
18647;SDS011;9453;50.294;18.644;2023-08-21T08:41:43;20.83;;;13.30;;
18647;SDS011;9453;50.294;18.644;2023-08-21T08:44:16;27.02;;;14.38;;
18647;SDS011;9453;50.294;18.644;2023-08-21T08:46:44;23.88;;;14.30;;
18647;SDS011;9453;50.294;18.644;2023-08-21T08:49:11;18.58;;;13.48;;
18647;SDS011;9453;50.294;18.644;2023-08-21T08:51:38;18.48;;;14.13;;
18647;SDS011;9453;50.294;18.644;2023-08-21T08:54:09;21.02;;;12.80;;
18647;SDS011;9453;50.294;18.644;2023-08-21T08:56:38;20.10;;;14.25;;
18647;SDS011;9453;50.294;18.644;2023-08-21T08:59:05;20.33;;;14.07;;
18647;SDS011;9453;50.294;18.644;2023-08-21T09:01:34;21.95;;;14.30;;
18647;SDS011;9453;50.294;18.644;2023-08-21T09:04:01;24.63;;;15.02;;
18647;SDS011;9453;50.294;18.644;2023-08-21T09:06:29;19.15;;;13.52;;
18647;SDS011;9453;50.294;18.644;2023-08-21T09:08:58;21.17;;;13.98;;
18647;SDS011;9453;50.294;18.644;2023-08-21T09:11:26;23.05;;;14.68;;
18647;SDS011;9453;50.294;18.644;2023-08-21T09:13:54;19.05;;;12.70;;
18647;SDS011;9453;50.294;18.644;2023-08-21T09:16:23;19.10;;;13.38;;
18647;SDS011;9453;50.294;18.644;2023-08-21T09:18:51;14.90;;;11.38;;
18647;SDS011;9453;50.294;18.644;2023-08-21T09:21:20;20.48;;;14.23;;
18647;SDS011;9453;50.294;18.644;2023-08-21T09:23:48;11.95;;;10.23;;
18647;SDS011;9453;50.294;18.644;2023-08-21T09:26:23;24.80;;;14.18;;
18647;SDS011;9453;50.294;18.644;2023-08-21T09:28:52;20.58;;;13.02;;
18647;SDS011;9453;50.294;18.644;2023-08-21T09:31:21;13.35;;;11.60;;
18647;SDS011;9453;50.294;18.644;2023-08-21T09:33:54;12.27;;;9.95;;
18647;SDS011;9453;50.294;18.644;2023-08-21T09:36:22;16.13;;;12.52;;
18647;SDS011;9453;50.294;18.644;2023-08-21T09:38:50;21.40;;;13.15;;
18647;SDS011;9453;50.294;18.644;2023-08-21T09:41:18;17.15;;;12.30;;
18647;SDS011;9453;50.294;18.644;2023-08-21T09:43:46;20.13;;;14.73;;
18647;SDS011;9453;50.294;18.644;2023-08-21T09:46:15;20.60;;;14.27;;
18647;SDS011;9453;50.294;18.644;2023-08-21T09:48:43;26.42;;;15.20;;
18647;SDS011;9453;50.294;18.644;2023-08-21T09:51:10;23.88;;;14.68;;
18647;SDS011;9453;50.294;18.644;2023-08-21T09:53:37;14.32;;;12.10;;
18647;SDS011;9453;50.294;18.644;2023-08-21T09:56:05;17.70;;;12.82;;
18647;SDS011;9453;50.294;18.644;2023-08-21T09:58:32;34.55;;;19.20;;
18647;SDS011;9453;50.294;18.644;2023-08-21T10:00:59;19.67;;;14.70;;
18647;SDS011;9453;50.294;18.644;2023-08-21T10:03:35;18.05;;;14.13;;
18647;SDS011;9453;50.294;18.644;2023-08-21T10:06:04;19.63;;;13.68;;
18647;SDS011;9453;50.294;18.644;2023-08-21T10:08:32;20.88;;;14.10;;
18647;SDS011;9453;50.294;18.644;2023-08-21T10:11:04;18.88;;;14.75;;
18647;SDS011;9453;50.294;18.644;2023-08-21T10:13:32;22.67;;;13.63;;
18647;SDS011;9453;50.294;18.644;2023-08-21T10:16:00;18.73;;;13.68;;
18647;SDS011;9453;50.294;18.644;2023-08-21T10:18:29;19.52;;;13.40;;
18647;SDS011;9453;50.294;18.644;2023-08-21T10:21:04;17.88;;;13.77;;
18647;SDS011;9453;50.294;18.644;2023-08-21T10:23:37;22.85;;;15.98;;
18647;SDS011;9453;50.294;18.644;2023-08-21T10:26:06;26.80;;;16.95;;
18647;SDS011;9453;50.294;18.644;2023-08-21T10:28:48;19.05;;;15.15;;
18647;SDS011;9453;50.294;18.644;2023-08-21T10:31:29;23.13;;;17.08;;
18647;SDS011;9453;50.294;18.644;2023-08-21T10:34:00;26.90;;;16.65;;
18647;SDS011;9453;50.294;18.644;2023-08-21T10:39:32;17.98;;;13.38;;
18647;SDS011;9453;50.294;18.644;2023-08-21T10:42:03;20.58;;;15.85;;
18647;SDS011;9453;50.294;18.644;2023-08-21T10:44:35;20.88;;;14.15;;
18647;SDS011;9453;50.294;18.644;2023-08-21T10:47:14;19.55;;;14.18;;
18647;SDS011;9453;50.294;18.644;2023-08-21T10:49:43;18.13;;;13.75;;
18647;SDS011;9453;50.294;18.644;2023-08-21T10:52:13;18.20;;;14.02;;
18647;SDS011;9453;50.294;18.644;2023-08-21T10:54:46;18.92;;;14.20;;
18647;SDS011;9453;50.294;18.644;2023-08-21T10:57:14;23.25;;;13.45;;
18647;SDS011;9453;50.294;18.644;2023-08-21T10:59:51;20.90;;;15.00;;
18647;SDS011;9453;50.294;18.644;2023-08-21T11:02:19;21.73;;;14.98;;
18647;SDS011;9453;50.294;18.644;2023-08-21T11:04:46;23.30;;;16.25;;
18647;SDS011;9453;50.294;18.644;2023-08-21T11:07:14;25.02;;;15.23;;
18647;SDS011;9453;50.294;18.644;2023-08-21T11:09:41;22.83;;;13.93;;
18647;SDS011;9453;50.294;18.644;2023-08-21T11:12:10;20.83;;;15.27;;
18647;SDS011;9453;50.294;18.644;2023-08-21T11:14:38;19.23;;;14.77;;
18647;SDS011;9453;50.294;18.644;2023-08-21T11:17:05;18.55;;;14.85;;
18647;SDS011;9453;50.294;18.644;2023-08-21T11:19:33;15.38;;;12.57;;
18647;SDS011;9453;50.294;18.644;2023-08-21T11:22:01;22.73;;;13.93;;
18647;SDS011;9453;50.294;18.644;2023-08-21T11:24:33;14.95;;;12.18;;
18647;SDS011;9453;50.294;18.644;2023-08-21T11:27:09;19.67;;;14.88;;
18647;SDS011;9453;50.294;18.644;2023-08-21T11:29:37;20.27;;;14.55;;
18647;SDS011;9453;50.294;18.644;2023-08-21T11:32:07;19.90;;;14.18;;
18647;SDS011;9453;50.294;18.644;2023-08-21T11:34:38;20.20;;;14.05;;
18647;SDS011;9453;50.294;18.644;2023-08-21T11:37:06;17.05;;;13.38;;
18647;SDS011;9453;50.294;18.644;2023-08-21T11:39:41;17.77;;;13.70;;
18647;SDS011;9453;50.294;18.644;2023-08-21T11:42:09;22.90;;;14.82;;
18647;SDS011;9453;50.294;18.644;2023-08-21T11:44:44;18.05;;;13.48;;
18647;SDS011;9453;50.294;18.644;2023-08-21T11:47:12;19.25;;;14.18;;
18647;SDS011;9453;50.294;18.644;2023-08-21T11:49:40;19.85;;;15.38;;
18647;SDS011;9453;50.294;18.644;2023-08-21T11:52:07;24.67;;;16.33;;
18647;SDS011;9453;50.294;18.644;2023-08-21T11:54:34;18.70;;;13.95;;
18647;SDS011;9453;50.294;18.644;2023-08-21T11:57:07;17.65;;;14.25;;
18647;SDS011;9453;50.294;18.644;2023-08-21T11:59:34;23.38;;;15.38;;
18647;SDS011;9453;50.294;18.644;2023-08-21T12:02:07;21.25;;;14.05;;
18647;SDS011;9453;50.294;18.644;2023-08-21T12:04:40;20.35;;;14.10;;
18647;SDS011;9453;50.294;18.644;2023-08-21T12:07:07;15.88;;;13.10;;
18647;SDS011;9453;50.294;18.644;2023-08-21T12:09:34;19.50;;;13.68;;
18647;SDS011;9453;50.294;18.644;2023-08-21T12:12:01;18.13;;;14.10;;
18647;SDS011;9453;50.294;18.644;2023-08-21T12:14:29;19.13;;;14.35;;
18647;SDS011;9453;50.294;18.644;2023-08-21T12:16:56;20.55;;;15.48;;
18647;SDS011;9453;50.294;18.644;2023-08-21T12:19:23;19.83;;;14.95;;
18647;SDS011;9453;50.294;18.644;2023-08-21T12:21:50;19.30;;;14.70;;
18647;SDS011;9453;50.294;18.644;2023-08-21T12:24:17;19.88;;;14.23;;
18647;SDS011;9453;50.294;18.644;2023-08-21T12:26:44;18.67;;;15.10;;
18647;SDS011;9453;50.294;18.644;2023-08-21T12:29:11;22.60;;;14.32;;
18647;SDS011;9453;50.294;18.644;2023-08-21T12:31:40;17.88;;;12.20;;
18647;SDS011;9453;50.294;18.644;2023-08-21T12:34:07;17.60;;;13.75;;
18647;SDS011;9453;50.294;18.644;2023-08-21T12:36:34;15.20;;;12.82;;
18647;SDS011;9453;50.294;18.644;2023-08-21T12:39:02;17.92;;;13.52;;
18647;SDS011;9453;50.294;18.644;2023-08-21T12:41:30;22.67;;;12.68;;
18647;SDS011;9453;50.294;18.644;2023-08-21T12:43:58;15.75;;;12.82;;
18647;SDS011;9453;50.294;18.644;2023-08-21T12:46:25;16.15;;;11.70;;
18647;SDS011;9453;50.294;18.644;2023-08-21T12:48:54;14.20;;;11.80;;
18647;SDS011;9453;50.294;18.644;2023-08-21T12:51:21;18.90;;;12.05;;
18647;SDS011;9453;50.294;18.644;2023-08-21T12:53:48;15.68;;;11.77;;
18647;SDS011;9453;50.294;18.644;2023-08-21T12:56:16;16.50;;;11.88;;
18647;SDS011;9453;50.294;18.644;2023-08-21T12:58:43;14.13;;;10.00;;
18647;SDS011;9453;50.294;18.644;2023-08-21T13:01:10;12.60;;;9.20;;
18647;SDS011;9453;50.294;18.644;2023-08-21T13:03:37;12.23;;;9.85;;
18647;SDS011;9453;50.294;18.644;2023-08-21T13:06:06;10.85;;;8.40;;
18647;SDS011;9453;50.294;18.644;2023-08-21T13:08:33;14.63;;;8.27;;
18647;SDS011;9453;50.294;18.644;2023-08-21T13:10:59;14.18;;;8.52;;
18647;SDS011;9453;50.294;18.644;2023-08-21T13:13:28;11.57;;;8.85;;
18647;SDS011;9453;50.294;18.644;2023-08-21T13:15:54;10.80;;;8.82;;
18647;SDS011;9453;50.294;18.644;2023-08-21T13:18:21;10.70;;;8.93;;
18647;SDS011;9453;50.294;18.644;2023-08-21T13:20:48;13.63;;;9.52;;
18647;SDS011;9453;50.294;18.644;2023-08-21T13:23:16;14.93;;;9.38;;
18647;SDS011;9453;50.294;18.644;2023-08-21T13:25:43;12.68;;;9.25;;
18647;SDS011;9453;50.294;18.644;2023-08-21T13:28:10;13.98;;;9.68;;
18647;SDS011;9453;50.294;18.644;2023-08-21T13:30:37;12.60;;;9.98;;
18647;SDS011;9453;50.294;18.644;2023-08-21T13:33:04;13.40;;;8.65;;
18647;SDS011;9453;50.294;18.644;2023-08-21T13:35:31;10.52;;;8.25;;
18647;SDS011;9453;50.294;18.644;2023-08-21T13:37:58;14.32;;;8.60;;
18647;SDS011;9453;50.294;18.644;2023-08-21T13:40:27;8.88;;;7.88;;
18647;SDS011;9453;50.294;18.644;2023-08-21T13:42:54;11.90;;;8.60;;
18647;SDS011;9453;50.294;18.644;2023-08-21T13:45:23;9.68;;;8.68;;
18647;SDS011;9453;50.294;18.644;2023-08-21T13:47:50;14.35;;;8.02;;
18647;SDS011;9453;50.294;18.644;2023-08-21T13:50:18;11.30;;;8.73;;
18647;SDS011;9453;50.294;18.644;2023-08-21T13:52:45;10.93;;;9.32;;
18647;SDS011;9453;50.294;18.644;2023-08-21T13:55:13;10.70;;;8.60;;
18647;SDS011;9453;50.294;18.644;2023-08-21T13:57:42;12.40;;;8.65;;
18647;SDS011;9453;50.294;18.644;2023-08-21T14:00:10;10.65;;;8.30;;
18647;SDS011;9453;50.294;18.644;2023-08-21T14:02:38;10.98;;;9.15;;
18647;SDS011;9453;50.294;18.644;2023-08-21T14:05:06;13.98;;;10.10;;
18647;SDS011;9453;50.294;18.644;2023-08-21T14:07:34;9.85;;;8.75;;
18647;SDS011;9453;50.294;18.644;2023-08-21T14:10:02;12.55;;;8.93;;
18647;SDS011;9453;50.294;18.644;2023-08-21T14:12:30;11.15;;;8.73;;
18647;SDS011;9453;50.294;18.644;2023-08-21T14:14:59;15.18;;;8.32;;
18647;SDS011;9453;50.294;18.644;2023-08-21T14:17:26;10.13;;;8.73;;
18647;SDS011;9453;50.294;18.644;2023-08-21T14:19:53;9.50;;;8.25;;
18647;SDS011;9453;50.294;18.644;2023-08-21T14:22:20;10.32;;;8.82;;
18647;SDS011;9453;50.294;18.644;2023-08-21T14:24:47;14.70;;;9.07;;
18647;SDS011;9453;50.294;18.644;2023-08-21T14:27:14;13.07;;;9.68;;
18647;SDS011;9453;50.294;18.644;2023-08-21T14:29:41;12.82;;;9.45;;
18647;SDS011;9453;50.294;18.644;2023-08-21T14:32:10;11.32;;;9.75;;
18647;SDS011;9453;50.294;18.644;2023-08-21T14:34:37;13.20;;;9.48;;
18647;SDS011;9453;50.294;18.644;2023-08-21T14:37:04;11.57;;;8.77;;
18647;SDS011;9453;50.294;18.644;2023-08-21T14:39:31;9.98;;;8.88;;
18647;SDS011;9453;50.294;18.644;2023-08-21T14:41:59;10.55;;;8.65;;
18647;SDS011;9453;50.294;18.644;2023-08-21T14:44:26;12.82;;;9.18;;
18647;SDS011;9453;50.294;18.644;2023-08-21T14:46:53;9.77;;;7.88;;
18647;SDS011;9453;50.294;18.644;2023-08-21T14:49:25;10.95;;;9.32;;
18647;SDS011;9453;50.294;18.644;2023-08-21T14:51:53;11.80;;;8.10;;
18647;SDS011;9453;50.294;18.644;2023-08-21T14:54:20;11.35;;;8.63;;
18647;SDS011;9453;50.294;18.644;2023-08-21T14:56:47;12.05;;;9.18;;
18647;SDS011;9453;50.294;18.644;2023-08-21T14:59:14;13.65;;;9.45;;
18647;SDS011;9453;50.294;18.644;2023-08-21T15:01:41;11.25;;;9.57;;
18647;SDS011;9453;50.294;18.644;2023-08-21T15:04:09;14.75;;;9.43;;
18647;SDS011;9453;50.294;18.644;2023-08-21T15:06:38;16.35;;;9.15;;
18647;SDS011;9453;50.294;18.644;2023-08-21T15:09:05;15.48;;;8.98;;
18647;SDS011;9453;50.294;18.644;2023-08-21T15:11:32;10.00;;;8.85;;
18647;SDS011;9453;50.294;18.644;2023-08-21T15:14:00;9.73;;;8.73;;
18647;SDS011;9453;50.294;18.644;2023-08-21T15:16:28;11.30;;;8.82;;
18647;SDS011;9453;50.294;18.644;2023-08-21T15:18:55;10.20;;;8.93;;
18647;SDS011;9453;50.294;18.644;2023-08-21T15:21:24;10.75;;;8.55;;
18647;SDS011;9453;50.294;18.644;2023-08-21T15:23:52;10.55;;;8.63;;
18647;SDS011;9453;50.294;18.644;2023-08-21T15:26:19;11.05;;;8.88;;
18647;SDS011;9453;50.294;18.644;2023-08-21T15:28:47;13.75;;;9.50;;
18647;SDS011;9453;50.294;18.644;2023-08-21T15:31:14;10.95;;;8.88;;
18647;SDS011;9453;50.294;18.644;2023-08-21T15:33:41;10.48;;;8.95;;
18647;SDS011;9453;50.294;18.644;2023-08-21T15:36:08;12.18;;;9.20;;
18647;SDS011;9453;50.294;18.644;2023-08-21T15:38:35;11.35;;;9.18;;
18647;SDS011;9453;50.294;18.644;2023-08-21T15:41:03;12.80;;;8.68;;
18647;SDS011;9453;50.294;18.644;2023-08-21T15:43:30;10.35;;;8.73;;
18647;SDS011;9453;50.294;18.644;2023-08-21T15:45:57;14.15;;;8.80;;
18647;SDS011;9453;50.294;18.644;2023-08-21T15:48:23;11.98;;;8.18;;
18647;SDS011;9453;50.294;18.644;2023-08-21T15:50:51;10.93;;;8.27;;
18647;SDS011;9453;50.294;18.644;2023-08-21T15:53:18;9.82;;;7.55;;
18647;SDS011;9453;50.294;18.644;2023-08-21T15:55:44;12.50;;;8.35;;
18647;SDS011;9453;50.294;18.644;2023-08-21T15:58:13;13.10;;;8.50;;
18647;SDS011;9453;50.294;18.644;2023-08-21T16:00:39;12.43;;;8.40;;
18647;SDS011;9453;50.294;18.644;2023-08-21T16:03:06;11.60;;;8.20;;
18647;SDS011;9453;50.294;18.644;2023-08-21T16:05:33;9.88;;;8.23;;
18647;SDS011;9453;50.294;18.644;2023-08-21T16:08:00;10.55;;;8.13;;
18647;SDS011;9453;50.294;18.644;2023-08-21T16:10:27;9.48;;;7.00;;
18647;SDS011;9453;50.294;18.644;2023-08-21T16:12:54;8.55;;;7.22;;
18647;SDS011;9453;50.294;18.644;2023-08-21T16:15:23;8.82;;;7.35;;
18647;SDS011;9453;50.294;18.644;2023-08-21T16:17:49;12.35;;;7.97;;
18647;SDS011;9453;50.294;18.644;2023-08-21T16:20:17;9.93;;;7.50;;
18647;SDS011;9453;50.294;18.644;2023-08-21T16:22:44;9.77;;;7.20;;
18647;SDS011;9453;50.294;18.644;2023-08-21T16:25:12;8.13;;;7.03;;
18647;SDS011;9453;50.294;18.644;2023-08-21T16:27:39;9.57;;;8.18;;
18647;SDS011;9453;50.294;18.644;2023-08-21T16:30:06;9.02;;;7.18;;
18647;SDS011;9453;50.294;18.644;2023-08-21T16:32:35;10.07;;;8.25;;
18647;SDS011;9453;50.294;18.644;2023-08-21T16:35:02;10.80;;;8.05;;
18647;SDS011;9453;50.294;18.644;2023-08-21T16:37:30;12.43;;;7.85;;
18647;SDS011;9453;50.294;18.644;2023-08-21T16:39:57;11.27;;;7.63;;
18647;SDS011;9453;50.294;18.644;2023-08-21T16:42:24;10.63;;;7.82;;
18647;SDS011;9453;50.294;18.644;2023-08-21T16:44:51;11.10;;;7.57;;
18647;SDS011;9453;50.294;18.644;2023-08-21T16:47:17;9.63;;;8.10;;
18647;SDS011;9453;50.294;18.644;2023-08-21T16:49:46;10.25;;;7.07;;
18647;SDS011;9453;50.294;18.644;2023-08-21T16:52:13;9.65;;;7.60;;
18647;SDS011;9453;50.294;18.644;2023-08-21T16:54:40;13.65;;;7.28;;
18647;SDS011;9453;50.294;18.644;2023-08-21T16:57:06;11.05;;;7.40;;
18647;SDS011;9453;50.294;18.644;2023-08-21T16:59:33;11.80;;;7.32;;
18647;SDS011;9453;50.294;18.644;2023-08-21T17:02:00;9.88;;;7.00;;
18647;SDS011;9453;50.294;18.644;2023-08-21T17:04:27;7.85;;;6.82;;
18647;SDS011;9453;50.294;18.644;2023-08-21T17:06:55;10.00;;;7.50;;
18647;SDS011;9453;50.294;18.644;2023-08-21T17:09:22;17.48;;;7.45;;
18647;SDS011;9453;50.294;18.644;2023-08-21T17:11:50;9.30;;;7.00;;
18647;SDS011;9453;50.294;18.644;2023-08-21T17:14:17;10.45;;;7.00;;
18647;SDS011;9453;50.294;18.644;2023-08-21T17:16:44;11.52;;;7.78;;
18647;SDS011;9453;50.294;18.644;2023-08-21T17:19:11;14.55;;;6.93;;
18647;SDS011;9453;50.294;18.644;2023-08-21T17:21:38;10.23;;;7.65;;
18647;SDS011;9453;50.294;18.644;2023-08-21T17:24:07;11.02;;;7.70;;
18647;SDS011;9453;50.294;18.644;2023-08-21T17:26:34;9.90;;;7.72;;
18647;SDS011;9453;50.294;18.644;2023-08-21T17:29:01;11.50;;;7.90;;
18647;SDS011;9453;50.294;18.644;2023-08-21T17:31:28;10.88;;;7.72;;
18647;SDS011;9453;50.294;18.644;2023-08-21T17:33:56;10.18;;;7.38;;
18647;SDS011;9453;50.294;18.644;2023-08-21T17:36:23;9.75;;;7.72;;
18647;SDS011;9453;50.294;18.644;2023-08-21T17:38:51;10.73;;;7.75;;
18647;SDS011;9453;50.294;18.644;2023-08-21T17:41:19;12.35;;;8.10;;
18647;SDS011;9453;50.294;18.644;2023-08-21T17:43:46;10.82;;;6.88;;
18647;SDS011;9453;50.294;18.644;2023-08-21T17:46:13;10.52;;;8.02;;
18647;SDS011;9453;50.294;18.644;2023-08-21T17:48:42;9.85;;;7.97;;
18647;SDS011;9453;50.294;18.644;2023-08-21T17:51:09;8.60;;;7.30;;
18647;SDS011;9453;50.294;18.644;2023-08-21T17:53:37;14.07;;;8.20;;
18647;SDS011;9453;50.294;18.644;2023-08-21T17:56:03;12.80;;;7.88;;
18647;SDS011;9453;50.294;18.644;2023-08-21T17:58:32;13.25;;;8.20;;
18647;SDS011;9453;50.294;18.644;2023-08-21T18:01:00;11.52;;;8.80;;
18647;SDS011;9453;50.294;18.644;2023-08-21T18:03:27;14.70;;;9.18;;
18647;SDS011;9453;50.294;18.644;2023-08-21T18:05:54;13.90;;;8.55;;
18647;SDS011;9453;50.294;18.644;2023-08-21T18:08:21;12.73;;;8.80;;
18647;SDS011;9453;50.294;18.644;2023-08-21T18:10:48;15.32;;;9.40;;
18647;SDS011;9453;50.294;18.644;2023-08-21T18:13:15;11.90;;;8.95;;
18647;SDS011;9453;50.294;18.644;2023-08-21T18:15:44;10.77;;;8.70;;
18647;SDS011;9453;50.294;18.644;2023-08-21T18:18:14;12.25;;;8.15;;
18647;SDS011;9453;50.294;18.644;2023-08-21T18:20:48;10.10;;;8.10;;
18647;SDS011;9453;50.294;18.644;2023-08-21T18:23:16;10.80;;;7.80;;
18647;SDS011;9453;50.294;18.644;2023-08-21T18:25:44;12.48;;;7.85;;
18647;SDS011;9453;50.294;18.644;2023-08-21T18:28:11;11.77;;;7.97;;
18647;SDS011;9453;50.294;18.644;2023-08-21T18:30:39;11.57;;;8.30;;
18647;SDS011;9453;50.294;18.644;2023-08-21T18:33:08;10.27;;;7.90;;
18647;SDS011;9453;50.294;18.644;2023-08-21T18:35:35;10.02;;;8.40;;